Time;durP1;ratioP1;P1;durP2;ratioP2;P2;SDS_P1;SDS_P2;PMS_P1;PMS_P2;Temp;Humidity;BMP_temperature;BMP_pressure;BME280_temperature;BME280_humidity;BME280_pressure;Samples;Min_cycle;Max_cycle;Signal;HPM_P1;HPM_P2
2023/08/31 00:00:46;;;;;;;5.25;2.58;;;13.40;99.90;;;;;;5060312;28;37017;-79
2023/08/31 00:03:13;;;;;;;8.38;2.88;;;13.40;99.90;;;;;;5043684;28;37979;-79
2023/08/31 00:05:45;;;;;;;9.43;2.67;;;13.40;99.90;;;;;;5061592;28;39223;-79
2023/08/31 00:08:11;;;;;;;7.93;2.47;;;13.50;99.90;;;;;;5046476;28;38088;-79
2023/08/31 00:10:38;;;;;;;6.95;2.83;;;13.60;99.90;;;;;;5044868;28;36834;-79
2023/08/31 00:13:06;;;;;;;9.60;3.00;;;13.60;99.90;;;;;;5068978;28;39689;-79
2023/08/31 00:15:35;;;;;;;6.78;2.22;;;13.60;99.90;;;;;;5069272;28;39583;-79
2023/08/31 00:18:04;;;;;;;7.97;2.72;;;13.60;99.90;;;;;;5068776;28;38295;-79
2023/08/31 00:20:33;;;;;;;5.68;2.58;;;13.70;99.90;;;;;;5063904;28;48854;-79
2023/08/31 00:22:59;;;;;;;8.77;3.05;;;13.70;99.90;;;;;;5087177;28;37294;-79
2023/08/31 00:25:26;;;;;;;8.63;3.15;;;13.70;99.90;;;;;;5050001;28;37521;-78
2023/08/31 00:27:53;;;;;;;11.13;3.33;;;13.80;99.90;;;;;;5049356;28;37308;-78
2023/08/31 00:30:20;;;;;;;9.43;2.67;;;13.80;99.90;;;;;;5075020;28;38124;-78
2023/08/31 00:32:48;;;;;;;11.45;3.40;;;13.80;99.90;;;;;;5053335;28;37495;-80
2023/08/31 00:35:16;;;;;;;8.02;2.60;;;13.70;99.90;;;;;;5068531;28;38606;-79
2023/08/31 00:37:42;;;;;;;5.60;2.42;;;13.70;99.90;;;;;;5054801;28;38122;-79
2023/08/31 00:40:09;;;;;;;4.60;1.80;;;13.60;99.90;;;;;;5074289;28;37245;-78
2023/08/31 00:42:35;;;;;;;6.95;2.08;;;13.60;99.90;;;;;;5053262;28;37709;-79
2023/08/31 00:45:02;;;;;;;3.95;1.48;;;13.60;99.90;;;;;;5040583;28;38905;-79
2023/08/31 00:47:28;;;;;;;2.40;1.45;;;13.50;99.90;;;;;;5059049;28;40896;-78
2023/08/31 00:49:54;;;;;;;2.53;1.50;;;13.40;99.90;;;;;;5059523;28;36936;-78
2023/08/31 00:52:21;;;;;;;5.43;1.75;;;13.30;99.90;;;;;;5061861;28;38941;-78
2023/08/31 00:54:51;;;;;;;3.10;1.63;;;13.30;99.90;;;;;;5062142;28;39532;-79
2023/08/31 00:57:17;;;;;;;3.90;1.58;;;13.30;99.90;;;;;;5059896;28;37932;-78
2023/08/31 00:59:43;;;;;;;6.53;1.50;;;13.20;99.90;;;;;;5044345;28;36308;-79
2023/08/31 01:05:24;;;;;;;10.73;1.95;;;12.90;99.90;;;;;;5065051;28;20049;-77
2023/08/31 01:07:58;;;;;;;6.50;1.80;;;12.80;99.90;;;;;;5039907;28;46848;-78
2023/08/31 01:10:46;;;;;;;3.00;1.70;;;12.70;99.90;;;;;;5075087;28;37242;-77
2023/08/31 01:13:19;;;;;;;3.72;1.70;;;12.60;99.90;;;;;;5054885;28;37635;-77
2023/08/31 01:15:46;;;;;;;;;;;12.60;99.90;;;;;;5061171;28;38647;-78
2023/08/31 01:18:17;;;;;;;3.97;1.42;;;12.50;99.90;;;;;;5062217;28;38187;-79
2023/08/31 01:20:51;;;;;;;3.28;1.60;;;12.50;99.90;;;;;;5078396;28;36778;-78
2023/08/31 01:23:19;;;;;;;3.97;1.85;;;12.50;99.90;;;;;;5062922;28;37958;-78
2023/08/31 01:25:48;;;;;;;5.00;1.85;;;12.40;99.90;;;;;;5060519;28;37411;-77
2023/08/31 01:28:14;;;;;;;2.03;1.67;;;12.40;99.90;;;;;;5075852;28;38968;-77
2023/08/31 01:30:41;;;;;;;2.58;1.60;;;12.50;99.90;;;;;;5070704;28;36118;-77
2023/08/31 01:33:07;;;;;;;7.85;2.67;;;12.50;99.90;;;;;;5084841;28;39878;-76
2023/08/31 01:35:43;;;;;;;9.13;2.95;;;12.50;99.90;;;;;;5061971;28;37407;-76
2023/08/31 01:38:10;;;;;;;10.20;2.53;;;12.50;99.90;;;;;;5064086;28;38562;-77
2023/08/31 01:40:57;;;;;;;3.45;2.67;;;12.50;99.90;;;;;;5063268;28;35977;-77
2023/08/31 01:43:24;;;;;;;3.60;2.30;;;12.50;99.90;;;;;;5064769;28;39732;-77
2023/08/31 01:45:51;;;;;;;4.45;2.25;;;12.50;99.90;;;;;;5082983;28;39495;-77
2023/08/31 01:48:17;;;;;;;6.28;2.53;;;12.60;99.90;;;;;;5081456;28;37716;-77
2023/08/31 01:50:43;;;;;;;2.83;2.40;;;12.60;99.90;;;;;;5065299;28;36288;-77
2023/08/31 01:53:10;;;;;;;6.72;2.40;;;12.60;99.90;;;;;;5082405;28;39152;-77
2023/08/31 01:55:37;;;;;;;3.72;2.58;;;12.60;99.90;;;;;;5064512;28;37357;-77
2023/08/31 01:58:03;;;;;;;8.77;3.53;;;12.60;99.90;;;;;;5062541;28;38062;-76
2023/08/31 02:00:34;;;;;;;9.73;3.70;;;12.60;99.90;;;;;;5061126;28;37557;-77
2023/08/31 02:03:01;;;;;;;3.20;2.85;;;12.60;99.90;;;;;;5062323;28;38741;-77
2023/08/31 02:05:27;;;;;;;4.68;2.50;;;12.60;99.90;;;;;;5061283;28;47503;-77
2023/08/31 02:07:53;;;;;;;5.18;2.85;;;12.60;99.90;;;;;;5069280;28;38031;-76
2023/08/31 02:10:19;;;;;;;2.85;2.60;;;12.60;99.90;;;;;;5060045;28;36213;-77
2023/08/31 02:12:46;;;;;;;7.13;3.55;;;12.60;99.90;;;;;;5069205;28;37414;-76
2023/08/31 02:15:12;;;;;;;4.50;3.03;;;12.60;99.90;;;;;;5086603;28;38682;-77
2023/08/31 02:17:38;;;;;;;4.50;2.88;;;12.60;99.90;;;;;;5066670;28;37179;-76
2023/08/31 02:20:06;;;;;;;4.20;2.80;;;12.60;99.90;;;;;;5060902;28;36097;-76
2023/08/31 02:22:35;;;;;;;3.75;2.95;;;12.60;99.90;;;;;;5077566;28;38349;-77
2023/08/31 02:25:01;;;;;;;6.22;3.67;;;12.60;99.90;;;;;;5058736;28;37299;-77
2023/08/31 02:27:27;;;;;;;3.38;2.83;;;12.50;99.90;;;;;;5062367;28;36744;-76
2023/08/31 02:29:53;;;;;;;5.30;3.00;;;12.50;99.90;;;;;;5062125;28;37088;-76
2023/08/31 02:32:20;;;;;;;5.40;3.15;;;12.50;99.90;;;;;;5058484;28;37955;-76
2023/08/31 02:34:46;;;;;;;7.85;3.20;;;12.40;99.90;;;;;;5058148;28;37307;-76
2023/08/31 02:37:12;;;;;;;5.25;3.10;;;12.40;99.90;;;;;;5075353;28;38958;-76
2023/08/31 02:39:39;;;;;;;5.60;2.88;;;12.40;99.90;;;;;;5077045;28;37044;-76
2023/08/31 02:42:06;;;;;;;7.97;3.13;;;12.30;99.90;;;;;;5056598;28;38910;-78
2023/08/31 02:44:32;;;;;;;5.50;3.30;;;12.30;99.90;;;;;;5055503;28;39350;-77
2023/08/31 02:46:58;;;;;;;7.80;3.65;;;12.40;99.90;;;;;;5060399;28;36845;-76
2023/08/31 02:49:24;;;;;;;3.38;2.67;;;12.30;99.90;;;;;;5060329;28;36804;-77
2023/08/31 02:51:51;;;;;;;6.25;2.97;;;12.30;99.90;;;;;;5059852;28;37752;-76
2023/08/31 02:54:17;;;;;;;2.97;2.67;;;12.30;99.90;;;;;;5075856;28;39208;-77
2023/08/31 02:56:43;;;;;;;3.80;2.83;;;12.20;99.90;;;;;;5061713;28;37082;-76
2023/08/31 02:59:09;;;;;;;8.98;3.13;;;12.20;99.90;;;;;;5060459;28;36564;-77
2023/08/31 03:01:35;;;;;;;4.38;2.90;;;12.20;99.90;;;;;;5060726;28;37779;-77
2023/08/31 03:04:01;;;;;;;3.67;2.60;;;12.20;99.90;;;;;;5080459;28;37767;-77
2023/08/31 03:06:27;;;;;;;3.95;2.28;;;12.20;99.90;;;;;;5078498;28;49070;-77
2023/08/31 03:08:53;;;;;;;3.35;2.47;;;12.20;99.90;;;;;;5067778;28;36199;-77
2023/08/31 03:11:19;;;;;;;5.70;2.55;;;12.20;99.90;;;;;;5082275;28;39856;-76
2023/08/31 03:13:46;;;;;;;3.47;2.15;;;12.20;99.90;;;;;;5083231;28;38296;-76
2023/08/31 03:16:12;;;;;;;3.30;2.10;;;12.20;99.90;;;;;;5056275;28;39045;-77
2023/08/31 03:18:38;;;;;;;3.58;2.17;;;12.20;99.90;;;;;;5078472;28;35917;-77
2023/08/31 03:21:04;;;;;;;5.85;2.58;;;12.20;99.90;;;;;;5066965;28;37724;-76
2023/08/31 03:23:30;;;;;;;6.10;2.90;;;12.10;99.90;;;;;;5076536;28;39552;-77
2023/08/31 03:25:56;;;;;;;6.60;2.45;;;12.10;99.90;;;;;;5077020;28;37358;-77
2023/08/31 03:28:22;;;;;;;4.82;2.67;;;12.10;99.90;;;;;;5062024;28;36092;-77
2023/08/31 03:30:56;;;;;;;2.70;2.00;;;12.10;99.90;;;;;;5078887;28;39867;-76
2023/08/31 03:33:23;;;;;;;7.28;2.97;;;12.00;99.90;;;;;;5058517;28;37323;-76
2023/08/31 03:35:49;;;;;;;6.80;2.50;;;12.00;99.90;;;;;;5077365;28;39483;-76
2023/08/31 03:38:15;;;;;;;3.08;2.50;;;12.00;99.90;;;;;;5077056;28;37899;-76
2023/08/31 03:40:41;;;;;;;4.95;2.20;;;11.90;99.90;;;;;;5061635;28;36957;-76
2023/08/31 03:43:07;;;;;;;3.58;2.13;;;11.90;99.90;;;;;;5067472;28;37599;-76
2023/08/31 03:45:33;;;;;;;3.25;1.90;;;11.90;99.90;;;;;;5058773;28;36837;-76
2023/08/31 03:47:59;;;;;;;3.40;2.00;;;11.90;99.90;;;;;;5058448;28;36799;-76
2023/08/31 03:50:26;;;;;;;4.20;2.03;;;11.90;99.90;;;;;;5065279;28;37799;-76
2023/08/31 03:52:52;;;;;;;3.45;2.05;;;11.90;99.90;;;;;;5073361;28;38990;-77
2023/08/31 03:55:18;;;;;;;3.30;2.03;;;11.90;99.90;;;;;;5078535;28;38865;-77
2023/08/31 03:57:44;;;;;;;4.18;1.88;;;11.90;99.90;;;;;;5065787;28;36021;-77
2023/08/31 04:00:12;;;;;;;3.30;1.95;;;11.90;99.90;;;;;;5060452;28;37776;-76
2023/08/31 04:02:38;;;;;;;2.95;1.98;;;11.90;99.90;;;;;;5058401;28;37173;-77
2023/08/31 04:05:05;;;;;;;4.97;2.70;;;11.80;99.90;;;;;;5074752;28;38756;-76
2023/08/31 04:07:34;;;;;;;2.72;2.38;;;11.80;99.90;;;;;;5073752;28;37675;-77
2023/08/31 04:10:00;;;;;;;3.17;2.03;;;11.80;99.90;;;;;;5067608;28;39385;-77
2023/08/31 04:12:26;;;;;;;3.00;2.15;;;11.80;99.90;;;;;;5056266;28;38351;-77
2023/08/31 04:14:53;;;;;;;2.47;2.28;;;11.90;99.90;;;;;;5078426;28;38036;-77
2023/08/31 04:17:19;;;;;;;4.63;2.08;;;11.90;99.90;;;;;;5077957;28;37249;-76
2023/08/31 04:19:45;;;;;;;6.20;2.67;;;11.90;99.90;;;;;;5057000;28;39182;-76
2023/08/31 04:22:11;;;;;;;5.10;2.10;;;11.90;99.90;;;;;;5056344;28;37474;-77
2023/08/31 04:24:37;;;;;;;4.55;2.20;;;11.90;99.90;;;;;;5076806;28;37762;-76
2023/08/31 04:27:04;;;;;;;5.00;2.63;;;11.90;99.90;;;;;;5058620;28;37112;-76
2023/08/31 04:29:30;;;;;;;4.45;1.95;;;11.90;99.90;;;;;;5057271;28;37425;-77
2023/08/31 04:31:56;;;;;;;5.50;2.50;;;11.80;99.90;;;;;;5071002;28;39324;-76
2023/08/31 04:34:22;;;;;;;5.15;2.00;;;11.80;99.90;;;;;;5077249;28;37934;-77
2023/08/31 04:36:48;;;;;;;4.05;2.05;;;11.80;99.90;;;;;;5056290;28;37698;-77
2023/08/31 04:39:14;;;;;;;3.92;2.03;;;11.80;99.90;;;;;;5067316;28;38941;-76
2023/08/31 04:41:40;;;;;;;2.63;1.73;;;11.80;99.90;;;;;;5069042;28;38237;-78
2023/08/31 04:44:06;;;;;;;3.75;2.30;;;11.80;99.90;;;;;;5072364;28;38218;-78
2023/08/31 04:46:33;;;;;;;3.22;1.80;;;11.80;99.90;;;;;;5055496;28;35745;-77
2023/08/31 04:48:59;;;;;;;3.97;1.80;;;11.80;99.90;;;;;;5073823;28;37592;-77
2023/08/31 04:51:30;;;;;;;5.25;1.75;;;11.80;99.90;;;;;;5063500;28;38196;-81
2023/08/31 04:53:56;;;;;;;3.55;2.17;;;11.80;99.90;;;;;;5078636;28;38660;-76
2023/08/31 04:56:23;;;;;;;6.00;2.22;;;11.90;99.90;;;;;;5051839;28;36135;-77
2023/08/31 04:59:12;;;;;;;3.10;2.13;;;11.90;99.90;;;;;;5075674;28;38894;-77
2023/08/31 05:01:38;;;;;;;4.20;1.77;;;11.90;99.90;;;;;;5043634;28;47557;-74
2023/08/31 05:04:05;;;;;;;8.48;1.80;;;11.90;99.90;;;;;;5073551;28;38112;-74
2023/08/31 05:06:31;;;;;;;4.75;2.30;;;11.90;99.90;;;;;;5075054;28;38280;-75
2023/08/31 05:08:57;;;;;;;6.65;2.05;;;11.90;99.90;;;;;;5070601;28;37160;-76
2023/08/31 05:11:24;;;;;;;2.92;2.00;;;11.90;99.90;;;;;;5059612;28;37706;-75
2023/08/31 05:13:50;;;;;;;3.80;1.92;;;11.90;99.90;;;;;;5072207;28;38820;-76
2023/08/31 05:16:16;;;;;;;3.80;2.47;;;12.00;99.90;;;;;;5079706;28;36753;-75
2023/08/31 05:18:42;;;;;;;3.67;2.25;;;12.00;99.90;;;;;;5084885;28;39612;-76
2023/08/31 05:21:08;;;;;;;5.55;2.38;;;12.10;99.90;;;;;;5078355;28;38579;-74
2023/08/31 05:23:34;;;;;;;3.67;2.50;;;12.10;99.90;;;;;;5065111;28;36750;-75
2023/08/31 05:26:01;;;;;;;6.03;2.60;;;12.20;99.90;;;;;;5059563;28;37064;-75
2023/08/31 05:28:27;;;;;;;6.70;2.50;;;12.20;99.90;;;;;;5083318;28;38590;-74
2023/08/31 05:30:57;;;;;;;5.25;2.35;;;12.20;99.90;;;;;;5080761;28;38749;-76
2023/08/31 05:33:25;;;;;;;3.63;1.80;;;12.20;99.90;;;;;;5080167;28;39021;-75
2023/08/31 05:35:51;;;;;;;3.20;1.90;;;12.20;99.90;;;;;;5068109;28;36172;-75
2023/08/31 05:38:17;;;;;;;4.47;1.75;;;12.20;99.90;;;;;;5073038;28;37974;-75
2023/08/31 05:40:46;;;;;;;2.58;1.80;;;12.20;99.90;;;;;;5070110;28;37882;-75
2023/08/31 05:43:16;;;;;;;4.30;1.70;;;12.30;99.90;;;;;;5079960;28;39226;-75
2023/08/31 05:45:42;;;;;;;4.03;2.10;;;12.20;99.90;;;;;;5057261;28;35529;-75
2023/08/31 05:48:08;;;;;;;2.38;1.85;;;12.20;99.90;;;;;;5084108;28;39980;-75
2023/08/31 05:50:36;;;;;;;2.90;1.88;;;12.20;99.90;;;;;;5079369;28;39186;-75
2023/08/31 05:53:03;;;;;;;2.90;2.20;;;12.30;99.90;;;;;;5072251;28;38830;-75
2023/08/31 05:55:30;;;;;;;6.90;2.00;;;12.30;99.90;;;;;;5077286;28;37462;-75
2023/08/31 05:57:56;;;;;;;3.28;1.90;;;12.30;99.90;;;;;;5072312;28;39424;-75
2023/08/31 06:00:22;;;;;;;5.10;2.63;;;12.40;99.90;;;;;;5080110;28;38197;-77
2023/08/31 06:02:48;;;;;;;8.15;2.35;;;12.40;99.90;;;;;;5067091;28;47500;-75
2023/08/31 06:05:16;;;;;;;5.55;2.97;;;12.50;99.90;;;;;;5061938;28;37271;-75
2023/08/31 06:07:43;;;;;;;5.43;2.60;;;12.50;99.90;;;;;;5081038;28;40016;-76
2023/08/31 06:10:10;;;;;;;3.15;1.83;;;12.50;99.90;;;;;;5060628;28;38486;-75
2023/08/31 06:12:36;;;;;;;7.68;2.50;;;12.60;99.90;;;;;;5064167;28;37102;-76
2023/08/31 06:15:03;;;;;;;4.85;2.10;;;12.60;99.90;;;;;;5061834;28;37044;-76
2023/08/31 06:17:29;;;;;;;7.22;2.05;;;12.70;99.90;;;;;;5071859;28;47015;-75
2023/08/31 06:19:55;;;;;;;3.67;1.88;;;12.70;99.90;;;;;;5066617;28;38332;-75
2023/08/31 06:22:24;;;;;;;2.85;1.75;;;12.80;99.90;;;;;;5077633;28;38495;-75
2023/08/31 06:24:51;;;;;;;5.68;2.67;;;12.80;99.90;;;;;;5058602;28;36248;-75
2023/08/31 06:27:18;;;;;;;3.55;1.88;;;12.90;99.90;;;;;;5067998;28;39272;-75
2023/08/31 06:29:44;;;;;;;7.18;2.42;;;13.00;99.90;;;;;;5079465;28;38228;-75
2023/08/31 06:32:10;;;;;;;4.70;2.05;;;13.10;99.90;;;;;;5080532;28;38860;-74
2023/08/31 06:34:36;;;;;;;7.45;2.50;;;13.10;99.90;;;;;;5059672;28;35830;-76
2023/08/31 06:37:03;;;;;;;5.47;2.40;;;13.20;99.90;;;;;;5064893;28;39188;-75
2023/08/31 06:39:29;;;;;;;4.88;2.70;;;13.20;99.90;;;;;;5063834;28;37380;-76
2023/08/31 06:41:55;;;;;;;9.98;2.67;;;13.30;99.90;;;;;;5059398;28;37063;-74
2023/08/31 06:44:21;;;;;;;4.35;2.22;;;13.50;99.90;;;;;;5080068;28;36986;-74
2023/08/31 06:46:47;;;;;;;8.18;2.45;;;13.70;99.90;;;;;;5065136;28;38590;-74
2023/08/31 06:49:14;;;;;;;4.70;3.30;;;13.70;99.90;;;;;;5074431;28;38263;-74
2023/08/31 06:51:40;;;;;;;4.25;2.92;;;13.70;99.90;;;;;;5078024;28;38015;-74
2023/08/31 06:54:06;;;;;;;7.15;3.13;;;13.90;99.90;;;;;;5059280;28;36120;-74
2023/08/31 06:56:33;;;;;;;5.70;3.30;;;14.00;99.90;;;;;;5079140;28;38763;-74
2023/08/31 06:59:00;;;;;;;9.25;3.35;;;14.00;99.90;;;;;;5083490;28;38500;-74
2023/08/31 07:01:27;;;;;;;11.43;3.72;;;14.20;99.90;;;;;;5058826;28;39545;-74
2023/08/31 07:03:53;;;;;;;7.95;4.00;;;14.40;99.90;;;;;;5076245;28;37302;-77
2023/08/31 07:06:20;;;;;;;4.72;3.17;;;14.40;99.90;;;;;;5076308;28;40369;-76
2023/08/31 07:08:47;;;;;;;8.10;3.60;;;14.50;99.90;;;;;;5063632;28;37391;-76
2023/08/31 07:11:13;;;;;;;6.00;3.33;;;14.50;99.90;;;;;;5064917;28;37840;-76
2023/08/31 07:13:40;;;;;;;6.85;3.17;;;14.50;99.90;;;;;;5080835;28;38249;-76
2023/08/31 07:16:06;;;;;;;8.10;3.17;;;14.70;99.90;;;;;;5045472;28;37845;-76
2023/08/31 07:18:32;;;;;;;6.82;4.20;;;14.70;99.90;;;;;;5070169;28;37605;-76
2023/08/31 07:20:58;;;;;;;15.95;6.30;;;14.80;99.90;;;;;;5087836;28;38906;-77
2023/08/31 07:23:24;;;;;;;12.18;5.07;;;14.80;99.90;;;;;;5078768;28;37817;-77
2023/08/31 07:25:51;;;;;;;9.73;5.70;;;14.90;99.90;;;;;;5084752;28;38362;-77
2023/08/31 07:28:17;;;;;;;7.78;5.32;;;15.00;99.90;;;;;;5066758;28;37402;-77
2023/08/31 07:30:43;;;;;;;7.82;5.50;;;15.00;99.90;;;;;;5059806;28;37384;-76
2023/08/31 07:33:10;;;;;;;10.48;6.15;;;15.10;99.90;;;;;;5077426;28;36879;-76
2023/08/31 07:35:36;;;;;;;6.82;5.00;;;15.20;99.90;;;;;;5063383;28;38503;-77
2023/08/31 07:38:02;;;;;;;10.23;5.65;;;15.30;99.90;;;;;;5089999;28;39189;-76
2023/08/31 07:40:28;;;;;;;11.10;6.63;;;15.40;99.90;;;;;;5070557;28;37217;-77
2023/08/31 07:42:54;;;;;;;11.82;5.25;;;15.40;99.90;;;;;;5064984;28;37179;-77
2023/08/31 07:45:20;;;;;;;9.90;5.70;;;15.50;99.90;;;;;;5060828;28;38731;-77
2023/08/31 07:47:46;;;;;;;11.07;5.72;;;15.60;99.90;;;;;;5062124;28;37368;-77
2023/08/31 07:50:14;;;;;;;9.95;5.18;;;15.60;99.90;;;;;;5080562;28;38077;-81
2023/08/31 07:52:40;;;;;;;8.55;5.25;;;15.70;99.90;;;;;;5062928;28;35891;-78
2023/08/31 07:55:06;;;;;;;8.48;5.05;;;15.90;99.90;;;;;;5063252;28;39087;-81
2023/08/31 07:57:34;;;;;;;6.60;4.43;;;16.00;99.90;;;;;;5068740;28;38253;-77
2023/08/31 08:00:00;;;;;;;11.52;4.82;;;16.10;99.90;;;;;;5078423;28;38083;-78
2023/08/31 08:02:26;;;;;;;7.00;4.32;;;16.30;99.90;;;;;;5062241;28;36600;-79
2023/08/31 08:04:52;;;;;;;8.40;4.35;;;16.40;99.90;;;;;;5079308;28;39597;-79
2023/08/31 08:07:18;;;;;;;13.15;4.50;;;16.70;99.90;;;;;;5075376;28;39325;-79
2023/08/31 08:09:44;;;;;;;6.78;3.60;;;16.80;99.90;;;;;;5079687;28;37553;-79
2023/08/31 08:12:10;;;;;;;10.68;3.00;;;16.90;99.90;;;;;;5054078;28;36497;-78
2023/08/31 08:14:36;;;;;;;10.23;3.10;;;17.10;99.90;;;;;;5075278;28;38382;-79
2023/08/31 08:17:03;;;;;;;5.38;2.40;;;17.40;99.90;;;;;;5061742;28;37574;-78
2023/08/31 08:19:29;;;;;;;5.97;2.38;;;17.50;99.90;;;;;;5062823;28;38241;-77
2023/08/31 08:21:55;;;;;;;7.63;2.50;;;17.70;99.90;;;;;;5055755;28;36430;-78
2023/08/31 08:24:21;;;;;;;5.80;2.20;;;17.80;99.90;;;;;;5057460;28;39941;-79
2023/08/31 08:26:47;;;;;;;6.78;2.30;;;17.90;99.90;;;;;;5074392;28;37875;-78
2023/08/31 08:29:13;;;;;;;4.18;2.05;;;18.00;99.90;;;;;;5051950;28;38002;-77
2023/08/31 08:31:40;;;;;;;6.80;2.70;;;18.30;99.90;;;;;;5057606;28;36088;-77
2023/08/31 08:34:06;;;;;;;8.63;2.53;;;18.50;99.90;;;;;;5060872;28;37853;-77
2023/08/31 08:36:32;;;;;;;5.00;2.20;;;18.40;99.90;;;;;;5073467;28;38247;-77
2023/08/31 08:38:58;;;;;;;5.82;1.92;;;18.30;99.90;;;;;;5075774;28;37956;-77
2023/08/31 08:41:25;;;;;;;3.08;1.63;;;18.40;99.90;;;;;;5059946;28;36051;-76
2023/08/31 08:43:52;;;;;;;2.60;1.40;;;18.50;99.90;;;;;;5080976;28;38000;-76
2023/08/31 08:46:18;;;;;;;3.35;1.33;;;18.80;99.90;;;;;;5060987;28;38448;-76
2023/08/31 08:48:47;;;;;;;7.43;1.83;;;18.50;99.90;;;;;;5057745;28;36924;-76
2023/08/31 08:51:14;;;;;;;3.08;1.33;;;18.00;99.90;;;;;;5058376;28;37320;-76
2023/08/31 08:53:44;;;;;;;6.95;1.48;;;17.80;99.90;;;;;;5057625;28;39062;-77
2023/08/31 08:56:11;;;;;;;6.57;2.03;;;18.00;99.90;;;;;;5076979;28;38833;-76
2023/08/31 08:58:37;;;;;;;4.78;1.10;;;18.10;99.90;;;;;;5045987;28;38092;-75
2023/08/31 09:01:07;;;;;;;2.88;0.98;;;18.40;99.90;;;;;;5063352;28;36541;-75
2023/08/31 09:03:35;;;;;;;2.60;0.90;;;18.60;99.90;;;;;;5078555;28;38231;-76
2023/08/31 09:06:07;;;;;;;4.82;0.88;;;18.60;99.90;;;;;;5075904;28;38273;-77
2023/08/31 09:08:34;;;;;;;6.05;1.00;;;18.60;99.90;;;;;;5005790;28;47242;-77
2023/08/31 09:11:06;;;;;;;3.03;0.88;;;18.60;99.90;;;;;;5044503;28;37108;-77
2023/08/31 09:13:33;;;;;;;3.05;1.00;;;18.70;99.90;;;;;;5054274;28;47480;-77
2023/08/31 09:15:59;;;;;;;4.70;1.00;;;19.00;99.90;;;;;;5063060;28;37616;-77
2023/08/31 09:18:27;;;;;;;3.22;1.00;;;19.20;99.90;;;;;;5061915;28;38555;-75
2023/08/31 09:21:06;;;;;;;3.63;0.65;;;19.20;95.40;;;;;;5063662;28;39526;-76
2023/08/31 09:23:32;;;;;;;1.85;1.08;;;19.20;99.90;;;;;;5055060;28;47097;-75
2023/08/31 09:26:04;;;;;;;2.42;0.77;;;19.10;99.70;;;;;;5083604;28;39211;-75
2023/08/31 09:28:30;;;;;;;4.43;1.00;;;19.20;98.00;;;;;;5026194;28;47169;-76
2023/08/31 09:31:07;;;;;;;2.80;0.90;;;19.30;99.90;;;;;;5055858;28;35968;-76
2023/08/31 09:33:36;;;;;;;9.98;1.17;;;19.40;95.60;;;;;;5082731;28;48369;-76
2023/08/31 09:36:05;;;;;;;1.52;0.60;;;19.40;86.50;;;;;;5073236;28;38348;-76
2023/08/31 09:38:31;;;;;;;2.30;0.82;;;19.50;88.40;;;;;;5108184;28;39209;-76
2023/08/31 09:41:07;;;;;;;2.40;0.90;;;19.40;62.50;;;;;;5091472;28;36811;-76
2023/08/31 09:43:33;;;;;;;3.97;0.60;;;19.00;71.30;;;;;;5106263;28;47630;-75
2023/08/31 09:46:03;;;;;;;3.63;0.90;;;18.90;94.50;;;;;;5104918;28;38195;-75
2023/08/31 09:48:30;;;;;;;3.03;1.13;;;19.10;85.10;;;;;;5079042;28;49077;-76
2023/08/31 09:50:57;;;;;;;4.50;0.82;;;18.90;65.50;;;;;;5089232;28;36569;-76
2023/08/31 09:53:24;;;;;;;4.13;1.00;;;18.90;69.50;;;;;;5106284;28;38462;-76
2023/08/31 09:55:52;;;;;;;1.38;0.55;;;19.20;75.80;;;;;;5079183;28;38217;-75
2023/08/31 09:58:21;;;;;;;2.42;0.80;;;19.40;68.70;;;;;;5106417;28;39151;-75
2023/08/31 10:00:52;;;;;;;2.55;0.93;;;19.70;76.90;;;;;;5102566;28;36810;-75
2023/08/31 10:03:20;;;;;;;3.47;0.63;;;19.80;27.60;;;;;;5074832;28;37928;-75
2023/08/31 10:05:48;;;;;;;3.50;0.90;;;19.90;61.90;;;;;;5081757;28;37453;-76
2023/08/31 10:08:14;;;;;;;2.08;0.73;;;19.90;46.60;;;;;;5091976;28;37978;-75
2023/08/31 10:10:41;;;;;;;3.10;0.90;;;20.10;55.40;;;;;;5101170;28;37087;-75
2023/08/31 10:13:08;;;;;;;2.60;0.70;;;20.30;43.30;;;;;;5104938;28;40736;-75
2023/08/31 10:15:37;;;;;;;3.50;0.70;;;20.40;53.50;;;;;;5085920;28;37137;-76
2023/08/31 10:18:05;;;;;;;5.00;0.80;;;20.60;61.30;;;;;;5079034;28;37159;-75
2023/08/31 10:20:33;;;;;;;3.42;1.02;;;20.50;40.50;;;;;;5110645;28;37951;-76
2023/08/31 10:23:06;;;;;;;2.20;0.73;;;20.50;7.90;;;;;;5094259;28;38703;-76
2023/08/31 10:25:53;;;;;;;2.78;0.90;;;20.50;31.80;;;;;;5076961;28;47225;-75
2023/08/31 10:28:22;;;;;;;3.05;0.73;;;20.50;12.70;;;;;;5069786;28;38222;-75
2023/08/31 10:31:09;;;;;;;1.52;0.60;;;20.60;30.60;;;;;;5103998;28;37388;-76
2023/08/31 10:33:47;;;;;;;1.70;0.70;;;20.70;22.10;;;;;;5082862;28;47018;-76
2023/08/31 10:36:18;;;;;;;1.77;0.70;;;21.00;37.10;;;;;;5083538;28;37514;-75
2023/08/31 10:38:56;;;;;;;2.97;0.70;;;21.10;1.00;;;;;;5082249;28;36738;-75
2023/08/31 10:41:23;;;;;;;2.38;0.90;;;20.80;17.50;;;;;;5083863;28;36908;-75
2023/08/31 10:43:54;;;;;;;4.93;0.60;;;20.90;4.20;;;;;;5089892;28;37660;-75
2023/08/31 10:46:33;;;;;;;2.90;0.77;;;21.10;21.40;;;;;;5080212;28;38289;-75
2023/08/31 10:49:11;;;;;;;4.00;1.13;;;21.10;14.80;;;;;;5085134;28;37294;-75
2023/08/31 10:51:42;;;;;;;2.85;0.75;;;21.20;27.80;;;;;;5110297;28;49005;-76
2023/08/31 10:54:25;;;;;;;2.45;0.52;;;21.30;24.00;;;;;;5083921;28;37776;-75
2023/08/31 10:56:55;;;;;;;2.65;0.80;;;21.30;11.00;;;;;;5106454;28;37843;-75
2023/08/31 10:59:22;;;;;;;1.90;0.70;;;21.40;13.50;;;;;;5102527;28;39068;-75
2023/08/31 11:01:59;;;;;;;2.25;0.82;;;21.40;5.20;;;;;;5090468;28;37144;-75
2023/08/31 11:04:27;;;;;;;2.10;0.93;;;21.20;1.00;;;;;;5089158;28;38042;-75
2023/08/31 11:07:14;;;;;;;2.15;0.88;;;20.70;18.20;;;;;;5098204;28;38247;-75
2023/08/31 11:09:41;;;;;;;1.58;0.77;;;20.80;1.00;;;;;;5102699;28;48599;-75
2023/08/31 11:12:08;;;;;;;2.55;0.90;;;21.00;17.30;;;;;;5099227;28;36749;-75
2023/08/31 11:14:34;;;;;;;3.08;1.00;;;21.20;3.60;;;;;;5090020;28;38759;-75
2023/08/31 11:17:01;;;;;;;3.78;1.23;;;21.00;1.00;;;;;;5092262;28;37496;-75
2023/08/31 11:19:28;;;;;;;2.90;0.88;;;21.00;9.20;;;;;;5106570;28;48716;-75
2023/08/31 11:21:54;;;;;;;2.88;0.80;;;20.60;15.00;;;;;;5081602;28;36953;-75
2023/08/31 11:24:23;;;;;;;5.78;0.82;;;20.30;1.00;;;;;;5075537;28;37857;-75
2023/08/31 11:26:56;;;;;;;1.23;0.63;;;20.60;1.00;;;;;;5089233;28;37437;-75
2023/08/31 11:29:22;;;;;;;2.50;0.98;;;20.80;1.00;;;;;;5108595;28;37951;-75
2023/08/31 11:31:48;;;;;;;2.10;0.90;;;21.00;1.00;;;;;;5078936;28;36414;-75
2023/08/31 11:34:17;;;;;;;2.45;1.02;;;21.00;1.00;;;;;;5083977;28;37902;-74
2023/08/31 11:36:45;;;;;;;2.80;0.80;;;21.40;1.00;;;;;;5097342;28;39462;-77
2023/08/31 11:39:13;;;;;;;2.47;0.75;;;21.60;1.00;;;;;;5083508;28;37150;-77
2023/08/31 11:41:41;;;;;;;4.18;1.15;;;21.70;1.00;;;;;;5085260;28;36681;-77
2023/08/31 11:44:09;;;;;;;3.92;1.15;;;21.90;1.00;;;;;;5106918;28;39501;-77
2023/08/31 11:46:37;;;;;;;2.20;1.00;;;22.00;1.00;;;;;;5090149;28;37459;-77
2023/08/31 11:49:04;;;;;;;21.83;4.65;;;21.90;1.00;;;;;;5084847;28;36696;-77
2023/08/31 11:51:32;;;;;;;3.58;0.90;;;21.50;1.00;;;;;;5104298;28;36842;-78
2023/08/31 11:53:59;;;;;;;2.35;0.80;;;21.40;1.00;;;;;;5101283;28;39261;-77
2023/08/31 11:56:25;;;;;;;2.60;0.85;;;21.20;1.00;;;;;;5099138;28;38752;-77
2023/08/31 11:58:51;;;;;;;3.03;1.00;;;21.40;1.00;;;;;;5105715;28;39407;-74
2023/08/31 12:01:20;;;;;;;2.40;0.73;;;21.70;1.00;;;;;;5085870;28;36741;-77
2023/08/31 12:03:47;;;;;;;2.00;0.70;;;21.90;1.00;;;;;;5108421;28;38616;-77
2023/08/31 12:06:20;;;;;;;3.67;0.90;;;22.00;1.00;;;;;;5105548;28;38079;-77
2023/08/31 12:08:47;;;;;;;2.13;0.75;;;21.70;1.00;;;;;;5075689;28;37317;-75
2023/08/31 12:11:13;;;;;;;1.73;0.75;;;21.60;1.00;;;;;;5086765;28;37100;-77
2023/08/31 12:13:39;;;;;;;8.60;0.98;;;21.50;1.00;;;;;;5084968;28;37694;-77
2023/08/31 12:16:13;;;;;;;3.22;1.10;;;21.60;1.00;;;;;;5088941;28;20830;-75
2023/08/31 12:18:40;;;;;;;2.17;0.88;;;21.50;1.00;;;;;;5084378;28;36775;-75
2023/08/31 12:21:06;;;;;;;4.80;0.75;;;21.30;1.00;;;;;;5100388;28;37336;-75
2023/08/31 12:23:32;;;;;;;4.53;0.93;;;21.20;1.00;;;;;;5100347;28;38482;-75
2023/08/31 12:25:58;;;;;;;2.63;0.80;;;21.40;1.00;;;;;;5107942;28;39390;-75
2023/08/31 12:28:25;;;;;;;5.32;1.25;;;21.40;1.00;;;;;;5088185;28;36999;-75
2023/08/31 12:30:56;;;;;;;3.47;1.02;;;21.40;1.00;;;;;;5105648;28;38246;-75
2023/08/31 12:33:22;;;;;;;3.00;0.82;;;21.40;1.00;;;;;;5095409;28;38377;-74
2023/08/31 12:35:49;;;;;;;4.65;1.20;;;21.40;1.00;;;;;;5086892;28;37500;-76
2023/08/31 12:38:15;;;;;;;4.38;1.13;;;21.20;1.00;;;;;;5106774;28;39032;-75
2023/08/31 12:40:41;;;;;;;2.55;0.80;;;21.20;1.00;;;;;;5108782;28;37959;-75
2023/08/31 12:43:09;;;;;;;3.15;1.17;;;21.40;1.00;;;;;;5074690;28;37869;-75
2023/08/31 12:45:36;;;;;;;3.75;1.17;;;21.40;1.00;;;;;;5081382;28;38434;-76
2023/08/31 12:48:04;;;;;;;3.95;1.08;;;21.40;1.00;;;;;;5095966;28;37786;-76
2023/08/31 12:50:30;;;;;;;2.35;1.00;;;21.10;1.00;;;;;;5076638;28;36594;-75
2023/08/31 12:52:56;;;;;;;2.15;0.80;;;21.00;1.00;;;;;;5078122;28;39470;-75